createdAt,value
2023-05-23T00:01:17.274Z,17.62
2023-05-23T00:02:39.658Z,17.60
2023-05-23T00:04:05.480Z,17.62
2023-05-23T00:05:29.333Z,17.61
2023-05-23T00:06:53.657Z,17.61
2023-05-23T00:08:16.446Z,17.57
2023-05-23T00:09:40.817Z,17.59
2023-05-23T00:11:03.128Z,17.57
2023-05-23T00:12:24.330Z,17.52
2023-05-23T00:13:46.754Z,17.57
2023-05-23T00:15:10.367Z,17.55
2023-05-23T00:16:31.447Z,17.56
2023-05-23T00:17:56.058Z,17.56
2023-05-23T00:19:30.747Z,17.46
2023-05-23T00:20:53.809Z,17.49
2023-05-23T00:22:19.082Z,17.52
2023-05-23T00:23:42.640Z,17.52
2023-05-23T00:25:04.736Z,17.53
2023-05-23T00:26:30.131Z,17.53
2023-05-23T00:27:51.648Z,17.50
2023-05-23T00:29:19.461Z,17.47
2023-05-23T00:30:40.677Z,17.46
2023-05-23T00:32:02.952Z,17.43
2023-05-23T00:33:24.131Z,17.41
2023-05-23T00:34:48.471Z,17.39
2023-05-23T00:36:10.905Z,17.36
2023-05-23T00:37:32.701Z,17.34
2023-05-23T00:38:55.881Z,17.32
2023-05-23T00:40:17.923Z,17.31
2023-05-23T00:41:40.247Z,17.29
2023-05-23T00:43:02.845Z,17.29
2023-05-23T00:44:24.199Z,17.22
2023-05-23T00:45:46.378Z,17.21
2023-05-23T00:47:09.832Z,17.22
2023-05-23T00:48:30.977Z,17.21
2023-05-23T00:49:54.933Z,17.19
2023-05-23T00:51:16.322Z,17.18
2023-05-23T00:52:38.915Z,17.14
2023-05-23T00:54:01.562Z,17.15
2023-05-23T00:55:24.820Z,17.13
2023-05-23T00:56:47.072Z,17.11
2023-05-23T00:58:08.951Z,17.03
2023-05-23T00:59:33.522Z,17.01
2023-05-23T01:00:55.881Z,17.01
2023-05-23T01:02:18.381Z,16.99
2023-05-23T01:03:40.865Z,16.95
2023-05-23T01:05:04.133Z,16.96
2023-05-23T01:06:26.759Z,16.94
2023-05-23T01:07:49.266Z,16.94
2023-05-23T01:09:11.417Z,16.93
2023-05-23T01:10:33.886Z,16.91
2023-05-23T01:12:04.347Z,16.93
2023-05-23T01:13:32.978Z,16.92
2023-05-23T01:15:01.599Z,16.90
2023-05-23T01:16:34.228Z,16.88
2023-05-23T01:18:04.305Z,16.84
2023-05-23T01:19:50.502Z,16.86
2023-05-23T01:21:18.950Z,16.84
2023-05-23T01:23:01.723Z,16.83
2023-05-23T01:24:36.736Z,16.83
2023-05-23T01:26:19.847Z,16.74
2023-05-23T01:27:52.697Z,16.76
2023-05-23T01:29:19.771Z,16.77
2023-05-23T01:30:44.372Z,16.75
2023-05-23T01:32:12.477Z,16.72
2023-05-23T01:33:35.686Z,16.70
2023-05-23T01:34:59.656Z,16.70
2023-05-23T01:36:23.157Z,16.70
2023-05-23T01:37:47.585Z,16.68
2023-05-23T01:39:09.178Z,16.68
2023-05-23T01:40:31.507Z,16.67
2023-05-23T01:41:54.139Z,16.65
2023-05-23T01:43:17.653Z,16.65
2023-05-23T01:44:39.928Z,16.65
2023-05-23T01:46:11.925Z,16.64
2023-05-23T01:47:34.408Z,16.64
2023-05-23T01:48:57.168Z,16.58
2023-05-23T01:50:21.387Z,16.60
2023-05-23T01:51:44.181Z,16.60
2023-05-23T01:53:11.376Z,16.57
2023-05-23T01:54:35.663Z,16.58
2023-05-23T01:55:58.488Z,16.55
2023-05-23T01:57:20.749Z,16.55
2023-05-23T01:58:44.948Z,16.53
2023-05-23T02:00:07.734Z,16.55
2023-05-23T02:01:35.881Z,16.51
2023-05-23T02:02:57.981Z,16.51
2023-05-23T02:04:20.929Z,16.50
2023-05-23T02:05:42.420Z,16.50
2023-05-23T02:07:04.795Z,16.43
2023-05-23T02:08:26.056Z,16.43
2023-05-23T02:09:48.610Z,16.42
2023-05-23T02:11:13.855Z,16.41
2023-05-23T02:12:36.307Z,16.37
2023-05-23T02:13:59.882Z,16.39
2023-05-23T02:15:21.925Z,16.34
2023-05-23T02:16:43.915Z,16.33
2023-05-23T02:18:06.727Z,16.32
2023-05-23T02:19:28.842Z,16.33
2023-05-23T02:20:51.711Z,16.31
2023-05-23T02:22:13.826Z,16.30
2023-05-23T02:23:39.063Z,16.26
2023-05-23T02:25:01.210Z,16.22
2023-05-23T02:26:23.385Z,16.25
2023-05-23T02:27:44.514Z,16.21
2023-05-23T02:29:08.229Z,16.20
2023-05-23T02:30:30.255Z,16.19
2023-05-23T02:31:51.312Z,16.16
2023-05-23T02:33:13.395Z,16.16
2023-05-23T02:34:34.964Z,16.14
2023-05-23T02:35:57.070Z,16.15
2023-05-23T02:37:19.314Z,16.13
2023-05-23T02:38:41.646Z,16.12
2023-05-23T02:40:07.716Z,16.11
2023-05-23T02:41:30.189Z,16.07
2023-05-23T02:42:52.866Z,16.09
2023-05-23T02:44:16.836Z,16.07
2023-05-23T02:45:39.264Z,16.05
2023-05-23T02:47:00.647Z,16.04
2023-05-23T02:48:25.485Z,16.01
2023-05-23T02:49:48.133Z,15.99
2023-05-23T02:51:09.364Z,15.99
2023-05-23T02:52:31.584Z,15.97
2023-05-23T02:53:52.846Z,15.97
2023-05-23T02:55:15.083Z,15.95
2023-05-23T02:56:40.483Z,15.93
2023-05-23T02:58:06.025Z,15.92
2023-05-23T02:59:29.820Z,15.90
2023-05-23T03:00:53.904Z,15.93
2023-05-23T03:02:16.064Z,15.92
2023-05-23T03:03:37.486Z,15.93
2023-05-23T03:04:59.681Z,15.93
2023-05-23T03:06:22.731Z,15.93
2023-05-23T03:07:44.925Z,15.96
2023-05-23T03:09:06.433Z,15.92
2023-05-23T03:10:28.582Z,15.94
2023-05-23T03:11:50.075Z,15.93
2023-05-23T03:13:12.809Z,15.93
2023-05-23T03:14:35.896Z,15.95
2023-05-23T03:15:58.606Z,15.94
2023-05-23T03:17:20.033Z,15.97
2023-05-23T03:18:42.883Z,15.98
2023-05-23T03:20:05.979Z,16.00
2023-05-23T03:21:28.175Z,16.01
2023-05-23T03:22:50.210Z,16.01
2023-05-23T03:24:12.760Z,16.02
2023-05-23T03:25:33.861Z,16.06
2023-05-23T03:26:55.948Z,16.04
2023-05-23T03:28:18.402Z,16.09
2023-05-23T03:29:42.372Z,16.08
2023-05-23T03:31:05.930Z,16.10
2023-05-23T03:32:28.487Z,16.08
2023-05-23T03:33:49.811Z,16.09
2023-05-23T03:35:12.810Z,16.08
2023-05-23T03:36:35.944Z,16.12
2023-05-23T03:37:58.792Z,16.10
2023-05-23T03:39:19.785Z,16.12
2023-05-23T03:40:42.126Z,16.14
2023-05-23T03:42:03.199Z,16.14
2023-05-23T03:43:25.697Z,16.12
2023-05-23T03:44:49.002Z,16.13
2023-05-23T03:46:11.766Z,16.13
2023-05-23T03:47:33.923Z,16.11
2023-05-23T03:48:56.036Z,16.18
2023-05-23T03:50:18.956Z,16.21
2023-05-23T03:51:41.704Z,16.22
2023-05-23T03:53:03.249Z,16.21
2023-05-23T03:54:25.626Z,16.25
2023-05-23T03:55:46.916Z,16.30
2023-05-23T03:57:09.074Z,16.31
2023-05-23T03:58:31.472Z,16.34
2023-05-23T03:59:59.018Z,16.38
2023-05-23T04:01:21.875Z,16.39
2023-05-23T04:02:44.717Z,16.42
2023-05-23T04:04:09.737Z,16.46
2023-05-23T04:05:32.084Z,16.47
2023-05-23T04:06:56.018Z,16.49
2023-05-23T04:08:22.231Z,16.50
2023-05-23T04:09:46.453Z,16.54
2023-05-23T04:11:08.765Z,16.54
2023-05-23T04:12:33.258Z,16.57
2023-05-23T04:13:55.174Z,16.61
2023-05-23T04:15:21.728Z,16.63
2023-05-23T04:16:53.132Z,16.66
2023-05-23T04:18:17.597Z,16.66
2023-05-23T04:19:38.859Z,16.72
2023-05-23T04:21:01.438Z,16.75
2023-05-23T04:22:23.903Z,16.76
2023-05-23T04:23:46.266Z,16.78
2023-05-23T04:25:09.734Z,16.85
2023-05-23T04:26:39.686Z,16.88
2023-05-23T04:28:02.437Z,16.89
2023-05-23T04:29:26.406Z,16.97
2023-05-23T04:30:51.610Z,17.04
2023-05-23T04:32:19.592Z,17.16
2023-05-23T04:33:42.000Z,17.25
2023-05-23T04:35:04.409Z,17.36
2023-05-23T04:36:33.087Z,17.49
2023-05-23T04:37:56.876Z,17.68
2023-05-23T04:39:22.211Z,17.87
2023-05-23T04:41:04.234Z,18.13
2023-05-23T04:42:46.323Z,18.37
2023-05-23T04:44:21.301Z,18.57
2023-05-23T04:46:04.666Z,18.83
2023-05-23T04:47:58.905Z,18.99
2023-05-23T04:49:30.699Z,19.28
2023-05-23T04:50:52.912Z,19.46
2023-05-23T04:52:14.550Z,19.65
2023-05-23T04:53:38.889Z,19.86
2023-05-23T04:55:01.984Z,20.09
2023-05-23T04:56:28.414Z,20.29
2023-05-23T04:57:52.614Z,20.53
2023-05-23T04:59:14.113Z,20.80
2023-05-23T05:00:36.330Z,21.06
2023-05-23T05:02:02.899Z,21.36
2023-05-23T05:03:25.371Z,21.58
2023-05-23T05:04:48.334Z,21.82
2023-05-23T05:06:14.016Z,22.04
2023-05-23T05:07:37.416Z,22.28
2023-05-23T05:09:02.059Z,22.50
2023-05-23T05:10:24.456Z,22.75
2023-05-23T05:11:54.288Z,22.86
2023-05-23T05:13:17.186Z,23.03
2023-05-23T05:14:43.946Z,23.18
2023-05-23T05:16:06.505Z,23.27
2023-05-23T05:17:31.128Z,23.34
2023-05-23T05:18:58.501Z,23.42
2023-05-23T05:20:21.906Z,23.50
2023-05-23T05:21:45.305Z,23.68
2023-05-23T05:23:09.878Z,23.86
2023-05-23T05:24:33.055Z,24.05
2023-05-23T05:25:54.052Z,24.19
2023-05-23T05:27:17.562Z,24.36
2023-05-23T05:28:41.283Z,24.52
2023-05-23T05:30:05.749Z,24.71
2023-05-23T05:31:43.646Z,24.86
2023-05-23T05:33:08.035Z,25.04
2023-05-23T05:34:31.146Z,25.18
2023-05-23T05:35:54.190Z,25.24
2023-05-23T05:37:17.536Z,25.22
2023-05-23T05:38:40.434Z,25.26
2023-05-23T05:40:06.773Z,25.28
2023-05-23T05:41:30.856Z,25.35
2023-05-23T05:42:53.083Z,25.46
2023-05-23T05:44:17.730Z,25.56
2023-05-23T05:45:41.908Z,25.66
2023-05-23T05:47:06.587Z,25.71
2023-05-23T05:48:29.217Z,25.78
2023-05-23T05:49:55.090Z,25.85
2023-05-23T05:51:17.707Z,25.84
2023-05-23T05:52:40.247Z,25.96
2023-05-23T05:54:02.685Z,25.99
2023-05-23T05:55:24.956Z,26.06
2023-05-23T05:56:48.705Z,26.18
2023-05-23T05:58:11.773Z,26.34
2023-05-23T05:59:46.206Z,26.58
2023-05-23T06:01:07.446Z,26.84
2023-05-23T06:02:32.708Z,27.13
2023-05-23T06:04:01.646Z,27.44
2023-05-23T06:05:23.581Z,27.74
2023-05-23T06:06:45.854Z,27.86
2023-05-23T06:08:06.990Z,28.15
2023-05-23T06:09:32.405Z,28.45
2023-05-23T06:10:56.878Z,28.68
2023-05-23T06:12:25.223Z,29.09
2023-05-23T06:13:48.901Z,29.35
2023-05-23T06:15:16.505Z,29.38
2023-05-23T06:16:38.689Z,29.40
2023-05-23T06:18:01.302Z,29.64
2023-05-23T06:19:27.271Z,29.57
2023-05-23T06:20:50.195Z,29.49
2023-05-23T06:22:13.599Z,29.51
2023-05-23T06:23:35.581Z,29.52
2023-05-23T06:25:00.734Z,29.50
2023-05-23T06:26:22.766Z,29.49
2023-05-23T06:27:47.560Z,29.51
2023-05-23T06:29:10.391Z,29.52
2023-05-23T06:30:32.404Z,29.41
2023-05-23T06:31:54.810Z,29.30
2023-05-23T06:33:17.751Z,29.16
2023-05-23T06:34:40.148Z,29.00
2023-05-23T06:36:02.824Z,28.88
2023-05-23T06:37:33.040Z,28.74
2023-05-23T06:39:01.848Z,28.80
2023-05-23T06:40:24.266Z,28.90
2023-05-23T06:41:48.363Z,28.94
2023-05-23T06:43:11.249Z,29.05
2023-05-23T06:44:41.741Z,29.58
2023-05-23T06:46:12.779Z,30.11
2023-05-23T06:47:34.173Z,30.86
2023-05-23T06:49:13.190Z,31.05
2023-05-23T06:50:40.329Z,31.15
2023-05-23T06:53:23.162Z,31.23
2023-05-23T06:54:52.386Z,31.41
2023-05-23T06:56:24.000Z,31.63
2023-05-23T07:03:51.621Z,31.96
2023-05-23T07:06:01.475Z,31.98
2023-05-23T07:07:31.169Z,32.15
2023-05-23T07:08:55.080Z,33.11
2023-05-23T07:10:20.173Z,34.02
2023-05-23T07:11:45.164Z,34.60
2023-05-23T07:13:08.930Z,34.85
2023-05-23T07:14:31.989Z,35.77
2023-05-23T07:15:55.103Z,36.37
2023-05-23T07:17:17.865Z,36.90
2023-05-23T07:18:43.890Z,37.59
2023-05-23T07:20:08.648Z,38.27
2023-05-23T07:21:32.537Z,39.01
2023-05-23T07:22:57.696Z,39.73
2023-05-23T07:24:20.638Z,40.54
2023-05-23T07:25:53.894Z,41.18
2023-05-23T07:27:26.465Z,41.78
2023-05-23T07:28:51.135Z,42.25
2023-05-23T07:30:14.552Z,42.27
2023-05-23T07:31:37.438Z,42.34
2023-05-23T07:33:13.187Z,41.80
2023-05-23T07:34:42.225Z,41.21
2023-05-23T07:36:07.967Z,40.58
2023-05-23T07:37:30.496Z,40.03
2023-05-23T07:38:57.038Z,39.43
2023-05-23T07:40:20.193Z,38.93
2023-05-23T07:41:42.988Z,38.42
2023-05-23T07:43:05.605Z,37.93
2023-05-23T07:44:28.172Z,37.44
2023-05-23T07:45:51.252Z,36.89
2023-05-23T07:47:17.023Z,36.49
2023-05-23T07:48:43.074Z,36.09
2023-05-23T07:50:09.693Z,35.71
2023-05-23T07:51:33.116Z,35.44
2023-05-23T07:52:58.928Z,35.26
2023-05-23T07:54:27.033Z,35.01
2023-05-23T07:55:54.245Z,34.76
2023-05-23T07:57:21.845Z,34.60
2023-05-23T07:58:47.300Z,34.28
2023-05-23T08:00:12.527Z,34.07
2023-05-23T08:01:39.191Z,33.88
2023-05-23T08:03:03.657Z,33.65
2023-05-23T08:04:34.178Z,33.42
2023-05-23T08:05:59.595Z,33.30
2023-05-23T08:07:22.494Z,33.29
2023-05-23T08:08:49.373Z,33.45
2023-05-23T08:10:37.458Z,33.54
2023-05-23T08:12:08.144Z,33.94
2023-05-23T08:13:32.160Z,34.99
2023-05-23T08:15:13.104Z,36.29
2023-05-23T08:16:39.532Z,36.42
2023-05-23T08:18:08.004Z,36.15
2023-05-23T08:19:31.243Z,35.93
2023-05-23T08:20:54.221Z,35.63
2023-05-23T08:22:17.535Z,35.26
2023-05-23T08:23:40.527Z,34.92
2023-05-23T08:25:03.604Z,34.51
2023-05-23T08:26:35.127Z,34.14
2023-05-23T08:28:00.864Z,33.64
2023-05-23T08:29:38.831Z,33.27
2023-05-23T08:31:02.195Z,32.87
2023-05-23T08:32:25.938Z,32.52
2023-05-23T08:33:48.472Z,32.17
2023-05-23T08:35:11.316Z,31.87
2023-05-23T08:36:40.387Z,31.57
2023-05-23T08:38:07.963Z,31.29
2023-05-23T08:39:33.104Z,31.06
2023-05-23T08:41:22.749Z,30.80
2023-05-23T08:42:49.939Z,30.61
2023-05-23T08:44:12.839Z,30.43
2023-05-23T08:45:42.837Z,30.24
2023-05-23T08:47:06.843Z,30.07
2023-05-23T08:48:51.389Z,29.87
2023-05-23T08:50:16.517Z,29.73
2023-05-23T08:51:44.630Z,29.58
2023-05-23T08:53:21.451Z,29.46
2023-05-23T08:54:49.855Z,29.29
2023-05-23T08:56:12.212Z,29.22
2023-05-23T08:57:43.804Z,29.05
2023-05-23T08:59:36.926Z,28.82
2023-05-23T09:01:01.333Z,28.58
2023-05-23T09:02:23.335Z,28.30
2023-05-23T09:03:50.601Z,28.03
2023-05-23T09:05:33.012Z,27.69
2023-05-23T09:07:01.534Z,27.44
2023-05-23T09:08:27.302Z,27.17
2023-05-23T09:09:53.594Z,26.93
2023-05-23T09:11:22.086Z,26.70
2023-05-23T09:12:45.138Z,26.40
2023-05-23T09:14:08.466Z,26.17
2023-05-23T09:15:34.545Z,25.91
2023-05-23T09:17:04.349Z,25.67
2023-05-23T09:18:28.457Z,25.44
2023-05-23T09:19:51.246Z,25.20
2023-05-23T09:21:34.010Z,24.90
2023-05-23T09:23:07.472Z,24.64
2023-05-23T09:24:36.484Z,24.47
2023-05-23T09:26:04.784Z,24.31
2023-05-23T09:27:26.868Z,24.10
2023-05-23T09:28:49.436Z,24.01
2023-05-23T09:30:13.873Z,23.85
2023-05-23T09:31:38.042Z,23.71
2023-05-23T09:33:05.630Z,23.54
2023-05-23T09:34:30.354Z,23.37
2023-05-23T09:35:52.813Z,23.24
2023-05-23T09:37:19.801Z,23.12
2023-05-23T09:38:43.644Z,22.93
2023-05-23T09:40:10.639Z,22.84
2023-05-23T09:41:36.233Z,22.65
2023-05-23T09:43:07.842Z,22.61
2023-05-23T09:44:30.263Z,22.48
2023-05-23T09:45:53.868Z,22.37
2023-05-23T09:47:18.830Z,22.24
2023-05-23T09:48:40.834Z,22.19
2023-05-23T09:50:03.557Z,22.10
2023-05-23T09:51:26.390Z,22.01
2023-05-23T09:52:48.497Z,21.90
2023-05-23T09:54:11.163Z,21.82
2023-05-23T09:55:33.605Z,21.73
2023-05-23T09:56:57.687Z,21.66
2023-05-23T09:58:25.351Z,21.44
2023-05-23T09:59:54.004Z,21.46
2023-05-23T10:01:17.241Z,21.41
2023-05-23T10:03:00.022Z,21.37
2023-05-23T10:04:23.885Z,21.37
2023-05-23T10:05:48.588Z,21.32
2023-05-23T10:07:18.585Z,21.31
2023-05-23T10:08:46.837Z,21.26
2023-05-23T10:10:14.143Z,21.23
2023-05-23T10:12:27.122Z,21.24
2023-05-23T10:13:53.412Z,21.20
2023-05-23T10:15:18.153Z,21.28
2023-05-23T10:17:00.864Z,21.31
2023-05-23T10:18:29.070Z,21.38
2023-05-23T10:20:02.861Z,21.45
2023-05-23T10:21:33.913Z,21.45
2023-05-23T10:22:57.866Z,21.63
2023-05-23T10:24:21.462Z,21.71
2023-05-23T10:25:46.025Z,21.90
2023-05-23T10:27:11.867Z,22.11
2023-05-23T10:28:43.428Z,22.28
2023-05-23T10:30:06.841Z,22.46
2023-05-23T10:31:40.889Z,22.66
2023-05-23T10:33:17.774Z,22.78
2023-05-23T10:34:48.882Z,23.05
2023-05-23T10:36:16.220Z,23.25
2023-05-23T10:37:44.385Z,23.46
2023-05-23T10:39:14.688Z,23.67
2023-05-23T10:40:49.955Z,24.03
2023-05-23T10:42:18.448Z,24.37
2023-05-23T10:43:50.462Z,24.67
2023-05-23T10:45:20.508Z,25.00
2023-05-23T10:46:58.288Z,25.33
2023-05-23T10:48:25.148Z,25.65
2023-05-23T10:50:16.285Z,25.95
2023-05-23T10:51:40.685Z,26.31
2023-05-23T10:53:56.249Z,26.66
2023-05-23T10:55:19.214Z,26.92
2023-05-23T10:56:41.682Z,27.17
2023-05-23T10:58:17.354Z,27.33
2023-05-23T10:59:43.490Z,27.53
2023-05-23T11:01:08.185Z,27.68
2023-05-23T11:02:31.174Z,27.91
2023-05-23T11:03:56.224Z,28.09
2023-05-23T11:05:24.681Z,28.28
2023-05-23T11:06:47.820Z,28.53
2023-05-23T11:08:13.864Z,28.75
2023-05-23T11:09:36.307Z,28.95
2023-05-23T11:11:01.622Z,29.16
2023-05-23T11:12:39.070Z,29.38
2023-05-23T11:14:04.385Z,29.62
2023-05-23T11:15:26.843Z,29.76
2023-05-23T11:16:54.421Z,29.95
2023-05-23T11:18:25.852Z,30.10
2023-05-23T11:20:08.922Z,30.24
2023-05-23T11:21:33.239Z,30.34
2023-05-23T11:23:00.069Z,30.42
2023-05-23T11:24:22.805Z,30.59
2023-05-23T11:26:16.234Z,30.66
2023-05-23T11:27:57.152Z,30.82
2023-05-23T11:29:21.723Z,30.96
2023-05-23T11:30:44.042Z,31.04
2023-05-23T11:34:17.193Z,31.27
2023-05-23T11:35:39.723Z,31.41
2023-05-23T11:37:03.709Z,31.58
2023-05-23T11:38:27.019Z,31.71
2023-05-23T11:42:48.378Z,32.03
2023-05-23T11:44:14.541Z,32.11
2023-05-23T11:48:36.440Z,32.34
2023-05-23T11:50:03.222Z,32.52
2023-05-23T11:51:24.280Z,32.69
2023-05-23T11:52:52.239Z,32.78
2023-05-23T11:54:14.638Z,32.92
2023-05-23T11:55:40.282Z,33.05
2023-05-23T11:57:03.796Z,33.14
2023-05-23T11:58:31.393Z,33.26
2023-05-23T11:59:54.203Z,33.37
2023-05-23T12:01:44.970Z,33.46
2023-05-23T12:03:11.955Z,33.50
2023-05-23T12:04:39.095Z,33.49
2023-05-23T12:06:03.693Z,33.42
2023-05-23T12:09:15.958Z,33.23
2023-05-23T12:10:38.127Z,33.24
2023-05-23T12:12:05.146Z,33.24
2023-05-23T12:13:28.227Z,33.18
2023-05-23T12:14:56.989Z,33.14
2023-05-23T12:16:19.808Z,33.08
2023-05-23T12:17:46.685Z,32.93
2023-05-23T12:19:09.225Z,32.81
2023-05-23T12:20:35.208Z,32.65
2023-05-23T12:21:57.907Z,32.47
2023-05-23T12:25:30.290Z,32.00
2023-05-23T12:30:47.277Z,31.66
2023-05-23T12:32:09.993Z,31.57
2023-05-23T12:36:49.448Z,31.24
2023-05-23T12:38:20.278Z,31.17
2023-05-23T12:39:51.579Z,31.09
2023-05-23T12:41:21.290Z,31.08
2023-05-23T12:42:52.935Z,31.15
2023-05-23T12:44:19.887Z,31.31
2023-05-23T12:45:42.574Z,31.45
2023-05-23T12:47:05.369Z,31.51
2023-05-23T12:48:27.743Z,31.58
2023-05-23T12:49:51.544Z,31.56
2023-05-23T12:51:20.690Z,31.54
2023-05-23T12:54:19.772Z,31.48
2023-05-23T12:55:42.337Z,31.44
2023-05-23T12:57:06.385Z,31.42
2023-05-23T12:58:31.106Z,31.37
2023-05-23T13:00:02.560Z,31.27
2023-05-23T13:03:32.408Z,31.02
2023-05-23T13:04:54.755Z,30.96
2023-05-23T13:06:17.175Z,30.89
2023-05-23T13:07:41.490Z,30.87
2023-05-23T13:09:06.200Z,30.88
2023-05-23T13:10:31.815Z,30.89
2023-05-23T13:11:56.485Z,30.92
2023-05-23T13:13:24.011Z,30.99
2023-05-23T13:14:50.010Z,31.09
2023-05-23T13:16:12.799Z,31.15
2023-05-23T13:17:35.215Z,31.16
2023-05-23T13:18:57.923Z,31.08
2023-05-23T13:20:22.621Z,31.03
2023-05-23T13:21:47.332Z,30.95
2023-05-23T13:23:15.015Z,30.93
2023-05-23T13:24:38.102Z,30.88
2023-05-23T13:26:02.461Z,30.79
2023-05-23T13:27:27.001Z,30.75
2023-05-23T13:28:51.286Z,30.77
2023-05-23T13:30:14.539Z,30.69
2023-05-23T13:31:37.549Z,30.48
2023-05-23T13:33:00.478Z,30.37
2023-05-23T13:34:22.708Z,30.19
2023-05-23T13:35:57.457Z,30.02
2023-05-23T13:37:40.187Z,29.77
2023-05-23T13:39:24.341Z,29.56
2023-05-23T13:41:41.096Z,29.36
2023-05-23T13:43:13.361Z,29.17
2023-05-23T13:44:55.090Z,29.16
2023-05-23T13:46:23.665Z,28.98
2023-05-23T13:47:57.018Z,28.89
2023-05-23T13:50:01.806Z,28.82
2023-05-23T13:57:30.437Z,28.64
2023-05-23T14:28:15.772Z,27.92
2023-05-23T14:43:38.795Z,28.16
2023-05-23T14:45:28.638Z,28.04
2023-05-23T14:51:43.024Z,27.45
2023-05-23T14:53:53.564Z,27.32
2023-05-23T14:55:36.596Z,27.23
2023-05-23T14:57:07.011Z,27.14
2023-05-23T14:58:31.167Z,27.14
2023-05-23T14:59:54.050Z,27.10
2023-05-23T15:01:19.659Z,27.07
2023-05-23T15:02:51.556Z,27.00
2023-05-23T15:04:14.654Z,26.94
2023-05-23T15:07:00.142Z,26.72
2023-05-23T15:08:14.448Z,26.66
2023-05-23T15:10:06.719Z,26.58
2023-05-23T15:12:05.348Z,26.43
2023-05-23T15:13:47.726Z,26.47
2023-05-23T15:15:50.515Z,26.38
2023-05-23T15:17:30.965Z,26.28
2023-05-23T15:18:57.818Z,26.24
2023-05-23T15:20:21.052Z,26.15
2023-05-23T15:21:58.418Z,26.02
2023-05-23T15:23:41.954Z,25.85
2023-05-23T15:25:49.048Z,25.75
2023-05-23T15:28:17.980Z,25.58
2023-05-23T15:29:42.350Z,25.39
2023-05-23T15:31:12.380Z,25.22
2023-05-23T15:33:04.527Z,25.16
2023-05-23T15:34:38.187Z,24.89
2023-05-23T15:36:01.398Z,24.87
2023-05-23T15:37:31.175Z,24.81
2023-05-23T15:39:47.712Z,24.75
2023-05-23T16:36:22.481Z,23.58
2023-05-23T16:38:47.072Z,23.64
2023-05-23T16:41:34.162Z,23.55
2023-05-23T16:46:25.240Z,23.62
2023-05-23T16:48:03.632Z,23.57
2023-05-23T16:50:20.143Z,23.51
2023-05-23T16:54:16.867Z,23.64
2023-05-23T16:55:56.061Z,23.73
2023-05-23T16:58:20.930Z,23.65
2023-05-23T17:01:34.460Z,23.81
2023-05-23T17:03:21.634Z,24.00
2023-05-23T17:06:09.539Z,24.04
2023-05-23T17:07:41.644Z,24.25
2023-05-23T17:09:07.581Z,24.25
2023-05-23T17:13:16.933Z,24.50
2023-05-23T17:14:25.760Z,24.57
2023-05-23T17:16:00.868Z,24.64
2023-05-23T17:21:22.521Z,24.71
2023-05-23T17:22:52.370Z,24.68
2023-05-23T17:24:36.784Z,24.61
2023-05-23T17:26:50.320Z,24.58
2023-05-23T17:31:10.441Z,24.31
2023-05-23T17:32:47.929Z,24.17
2023-05-23T17:34:55.076Z,24.09
2023-05-23T17:41:31.111Z,23.81
2023-05-23T17:45:31.854Z,23.54
2023-05-23T17:47:01.088Z,23.47
2023-05-23T17:50:49.917Z,23.34
2023-05-23T17:54:26.837Z,23.09
2023-05-23T17:56:12.585Z,23.06
2023-05-23T18:03:57.331Z,22.73
2023-05-23T18:05:53.796Z,22.61
2023-05-23T18:10:39.631Z,22.42
2023-05-23T18:12:07.178Z,22.28
2023-05-23T18:15:17.552Z,22.25
2023-05-23T18:20:20.533Z,22.00
2023-05-23T18:22:39.368Z,22.00
2023-05-23T18:26:02.084Z,21.88
2023-05-23T18:27:27.652Z,21.83
2023-05-23T18:29:06.112Z,21.82
2023-05-23T18:30:31.507Z,21.79
2023-05-23T18:31:56.548Z,21.77
2023-05-23T18:37:59.043Z,21.55
2023-05-23T18:39:53.136Z,21.44
2023-05-23T18:44:10.849Z,21.17
2023-05-23T18:51:36.456Z,20.95
2023-05-23T18:57:54.979Z,20.77
2023-05-23T18:59:28.576Z,20.70
2023-05-23T19:01:31.819Z,20.62
2023-05-23T19:03:03.188Z,20.72
2023-05-23T19:04:25.851Z,20.68
2023-05-23T19:05:49.392Z,20.68
2023-05-23T19:07:11.688Z,20.61
2023-05-23T19:08:36.096Z,20.65
2023-05-23T19:09:58.427Z,20.63
2023-05-23T19:12:08.045Z,20.59
2023-05-23T19:13:34.815Z,20.52
2023-05-23T19:14:57.192Z,20.57
2023-05-23T19:16:33.036Z,20.55
2023-05-23T19:18:08.130Z,20.47
2023-05-23T19:19:34.712Z,20.47
2023-05-23T19:21:31.108Z,20.43
2023-05-23T19:23:00.943Z,20.39
2023-05-23T19:24:23.867Z,20.33
2023-05-23T19:25:52.976Z,20.35
2023-05-23T19:27:16.611Z,20.31
2023-05-23T19:28:45.829Z,20.26
2023-05-23T19:30:11.952Z,20.27
2023-05-23T19:32:01.879Z,20.17
2023-05-23T19:33:31.876Z,20.21
2023-05-23T19:34:57.784Z,20.17
2023-05-23T19:36:23.334Z,20.22
2023-05-23T19:37:47.913Z,20.21
2023-05-23T19:39:12.683Z,20.14
2023-05-23T19:40:35.265Z,20.16
2023-05-23T19:42:05.375Z,20.14
2023-05-23T19:43:37.533Z,20.03
2023-05-23T19:45:04.410Z,19.97
2023-05-23T19:46:53.143Z,20.01
2023-05-23T19:48:19.676Z,19.93
2023-05-23T19:49:43.935Z,19.92
2023-05-23T19:51:07.973Z,19.81
2023-05-23T19:53:00.418Z,19.82
2023-05-23T19:54:39.777Z,19.78
2023-05-23T19:56:11.177Z,19.66
2023-05-23T19:57:52.651Z,19.66
2023-05-23T19:59:31.440Z,19.64
2023-05-23T20:01:19.370Z,19.57
2023-05-23T20:02:48.855Z,19.56
2023-05-23T20:04:18.581Z,19.49
2023-05-23T20:05:41.192Z,19.53
2023-05-23T20:07:41.930Z,19.49
2023-05-23T20:09:07.827Z,19.44
2023-05-23T20:10:39.455Z,19.31
2023-05-23T20:23:50.746Z,19.00
2023-05-23T20:25:27.155Z,19.00
2023-05-23T20:26:52.354Z,19.04
2023-05-23T20:30:08.838Z,19.03
2023-05-23T20:31:48.571Z,18.91
2023-05-23T20:33:28.159Z,18.99
2023-05-23T20:36:33.212Z,18.85
2023-05-23T21:49:20.001Z,18.06
2023-05-23T21:50:42.910Z,18.18
2023-05-23T21:52:35.965Z,18.20
2023-05-23T21:54:28.719Z,18.15
2023-05-23T21:55:50.350Z,18.23
2023-05-23T21:57:15.132Z,18.26
2023-05-23T21:58:39.814Z,18.25
2023-05-23T22:00:00.927Z,18.23
2023-05-23T22:01:23.156Z,18.29
2023-05-23T22:05:52.366Z,18.19
2023-05-23T22:07:15.014Z,18.27
2023-05-23T22:08:40.614Z,18.30
2023-05-23T22:10:03.215Z,18.29
2023-05-23T22:11:24.554Z,18.33
2023-05-23T22:15:41.697Z,18.30
2023-05-23T22:17:08.624Z,18.34
2023-05-23T22:20:18.645Z,18.41
2023-05-23T22:24:11.434Z,18.51
2023-05-23T22:25:48.967Z,18.48
2023-05-23T22:27:40.628Z,18.58
2023-05-23T22:29:02.327Z,18.58
2023-05-23T22:30:30.541Z,18.67
2023-05-23T22:31:52.763Z,18.72
2023-05-23T22:33:21.058Z,18.70
2023-05-23T22:35:23.836Z,18.78
2023-05-23T22:37:18.103Z,18.80
2023-05-23T22:38:39.119Z,18.83
2023-05-23T22:40:34.650Z,18.75
2023-05-23T22:43:11.832Z,18.85
2023-05-23T22:44:34.639Z,18.88
2023-05-23T22:45:57.234Z,18.89
2023-05-23T22:47:55.462Z,18.89
2023-05-23T22:49:45.801Z,18.80
2023-05-23T22:51:48.786Z,18.90
2023-05-23T22:53:16.808Z,18.90
2023-05-23T22:54:39.051Z,18.93
2023-05-23T22:56:13.704Z,18.89
2023-05-23T22:57:51.384Z,18.88
2023-05-23T22:59:13.890Z,18.92
2023-05-23T23:00:35.899Z,18.93
2023-05-23T23:01:58.148Z,18.89
2023-05-23T23:03:19.371Z,18.90
2023-05-23T23:04:41.885Z,18.92
2023-05-23T23:06:06.283Z,18.93
2023-05-23T23:07:29.236Z,18.94
2023-05-23T23:08:52.007Z,18.90
2023-05-23T23:10:14.446Z,18.93
2023-05-23T23:11:38.626Z,18.92
2023-05-23T23:13:00.957Z,18.89
2023-05-23T23:14:22.437Z,18.90
2023-05-23T23:15:45.475Z,18.87
2023-05-23T23:17:07.695Z,18.90
2023-05-23T23:18:29.816Z,18.84
2023-05-23T23:19:55.803Z,18.89
2023-05-23T23:21:18.286Z,18.90
2023-05-23T23:22:40.183Z,18.86
2023-05-23T23:24:02.015Z,18.81
2023-05-23T23:25:24.672Z,18.83
2023-05-23T23:29:39.637Z,18.73
2023-05-23T23:31:01.921Z,18.76
2023-05-23T23:32:23.736Z,18.69
2023-05-23T23:33:46.083Z,18.76
2023-05-23T23:35:07.876Z,18.70
2023-05-23T23:36:32.572Z,18.73
2023-05-23T23:37:53.982Z,18.73
2023-05-23T23:39:16.444Z,18.71
2023-05-23T23:40:42.553Z,18.59
2023-05-23T23:42:08.764Z,18.67
2023-05-23T23:43:34.100Z,18.67
2023-05-23T23:44:55.870Z,18.64
2023-05-23T23:46:19.382Z,18.56
2023-05-23T23:47:42.835Z,18.60
2023-05-23T23:49:04.935Z,18.52
2023-05-23T23:50:27.734Z,18.62
2023-05-23T23:51:50.205Z,18.48
2023-05-23T23:55:45.257Z,18.40
2023-05-23T23:57:14.030Z,18.47
2023-05-23T23:58:37.171Z,18.41
2023-05-23T23:59:58.984Z,18.41
